sensor_id;sensor_type;location;lat;lon;timestamp;P1;durP1;ratioP1;P2;durP2;ratioP2
24216;SDS011;12356;49.386;8.688;2024-03-02T00:02:09;15.80;;;7.88;;
24216;SDS011;12356;49.386;8.688;2024-03-02T00:04:40;13.57;;;7.63;;
24216;SDS011;12356;49.386;8.688;2024-03-02T00:07:14;11.80;;;7.43;;
24216;SDS011;12356;49.386;8.688;2024-03-02T00:09:45;13.50;;;7.25;;
24216;SDS011;12356;49.386;8.688;2024-03-02T00:12:15;10.32;;;6.18;;
24216;SDS011;12356;49.386;8.688;2024-03-02T00:14:46;10.57;;;6.13;;
24216;SDS011;12356;49.386;8.688;2024-03-02T00:17:24;10.35;;;6.10;;
24216;SDS011;12356;49.386;8.688;2024-03-02T00:19:55;10.43;;;6.28;;
24216;SDS011;12356;49.386;8.688;2024-03-02T00:22:26;12.90;;;6.85;;
24216;SDS011;12356;49.386;8.688;2024-03-02T00:24:58;14.38;;;7.75;;
24216;SDS011;12356;49.386;8.688;2024-03-02T00:27:29;12.65;;;7.40;;
24216;SDS011;12356;49.386;8.688;2024-03-02T00:30:00;11.90;;;7.30;;
24216;SDS011;12356;49.386;8.688;2024-03-02T00:32:35;11.43;;;6.75;;
24216;SDS011;12356;49.386;8.688;2024-03-02T00:35:06;11.63;;;6.07;;
24216;SDS011;12356;49.386;8.688;2024-03-02T00:37:37;9.88;;;6.10;;
24216;SDS011;12356;49.386;8.688;2024-03-02T00:40:07;11.50;;;5.60;;
24216;SDS011;12356;49.386;8.688;2024-03-02T00:42:38;9.55;;;5.75;;
24216;SDS011;12356;49.386;8.688;2024-03-02T00:45:09;11.43;;;5.90;;
24216;SDS011;12356;49.386;8.688;2024-03-02T00:47:40;9.73;;;6.10;;
24216;SDS011;12356;49.386;8.688;2024-03-02T00:50:10;10.55;;;6.20;;
24216;SDS011;12356;49.386;8.688;2024-03-02T00:52:42;10.37;;;6.43;;
24216;SDS011;12356;49.386;8.688;2024-03-02T00:55:13;8.90;;;5.70;;
24216;SDS011;12356;49.386;8.688;2024-03-02T00:57:44;8.38;;;5.50;;
24216;SDS011;12356;49.386;8.688;2024-03-02T01:00:15;7.95;;;5.45;;
24216;SDS011;12356;49.386;8.688;2024-03-02T01:02:47;11.90;;;6.03;;
24216;SDS011;12356;49.386;8.688;2024-03-02T01:05:18;12.40;;;5.90;;
24216;SDS011;12356;49.386;8.688;2024-03-02T01:07:48;10.50;;;5.97;;
24216;SDS011;12356;49.386;8.688;2024-03-02T01:10:19;9.35;;;5.88;;
24216;SDS011;12356;49.386;8.688;2024-03-02T01:12:50;9.25;;;5.55;;
24216;SDS011;12356;49.386;8.688;2024-03-02T01:15:21;9.45;;;5.72;;
24216;SDS011;12356;49.386;8.688;2024-03-02T01:17:52;9.52;;;5.45;;
24216;SDS011;12356;49.386;8.688;2024-03-02T01:20:22;9.48;;;5.80;;
24216;SDS011;12356;49.386;8.688;2024-03-02T01:22:53;12.77;;;6.32;;
24216;SDS011;12356;49.386;8.688;2024-03-02T01:25:23;10.43;;;6.05;;
24216;SDS011;12356;49.386;8.688;2024-03-02T01:27:55;9.93;;;6.05;;
24216;SDS011;12356;49.386;8.688;2024-03-02T01:30:25;11.35;;;5.82;;
24216;SDS011;12356;49.386;8.688;2024-03-02T01:32:56;8.82;;;5.70;;
24216;SDS011;12356;49.386;8.688;2024-03-02T01:35:28;9.88;;;6.45;;
24216;SDS011;12356;49.386;8.688;2024-03-02T01:37:59;9.32;;;5.88;;
24216;SDS011;12356;49.386;8.688;2024-03-02T01:40:30;9.68;;;6.00;;
24216;SDS011;12356;49.386;8.688;2024-03-02T01:43:01;9.63;;;5.85;;
24216;SDS011;12356;49.386;8.688;2024-03-02T01:45:32;10.48;;;6.10;;
24216;SDS011;12356;49.386;8.688;2024-03-02T01:48:04;10.50;;;6.50;;
24216;SDS011;12356;49.386;8.688;2024-03-02T01:50:36;14.10;;;6.55;;
24216;SDS011;12356;49.386;8.688;2024-03-02T01:53:06;15.27;;;6.85;;
24216;SDS011;12356;49.386;8.688;2024-03-02T01:55:38;11.45;;;6.63;;
24216;SDS011;12356;49.386;8.688;2024-03-02T01:58:09;9.05;;;5.82;;
24216;SDS011;12356;49.386;8.688;2024-03-02T02:00:39;10.35;;;5.53;;
24216;SDS011;12356;49.386;8.688;2024-03-02T02:03:10;9.45;;;5.15;;
24216;SDS011;12356;49.386;8.688;2024-03-02T02:05:41;8.45;;;4.75;;
24216;SDS011;12356;49.386;8.688;2024-03-02T02:08:12;8.80;;;4.47;;
24216;SDS011;12356;49.386;8.688;2024-03-02T02:10:43;8.18;;;4.95;;
24216;SDS011;12356;49.386;8.688;2024-03-02T02:13:13;8.93;;;4.72;;
24216;SDS011;12356;49.386;8.688;2024-03-02T02:15:44;8.45;;;4.38;;
24216;SDS011;12356;49.386;8.688;2024-03-02T02:18:14;6.72;;;4.25;;
24216;SDS011;12356;49.386;8.688;2024-03-02T02:20:45;7.63;;;4.40;;
24216;SDS011;12356;49.386;8.688;2024-03-02T02:23:15;6.63;;;4.15;;
24216;SDS011;12356;49.386;8.688;2024-03-02T02:25:46;8.98;;;5.72;;
24216;SDS011;12356;49.386;8.688;2024-03-02T02:28:17;8.30;;;5.68;;
24216;SDS011;12356;49.386;8.688;2024-03-02T02:30:48;9.00;;;5.63;;
24216;SDS011;12356;49.386;8.688;2024-03-02T02:33:18;10.52;;;6.10;;
24216;SDS011;12356;49.386;8.688;2024-03-02T02:35:49;9.40;;;6.05;;
24216;SDS011;12356;49.386;8.688;2024-03-02T02:38:19;9.88;;;5.32;;
24216;SDS011;12356;49.386;8.688;2024-03-02T02:40:50;10.43;;;5.30;;
24216;SDS011;12356;49.386;8.688;2024-03-02T02:43:20;11.80;;;5.72;;
24216;SDS011;12356;49.386;8.688;2024-03-02T02:45:51;8.13;;;5.55;;
24216;SDS011;12356;49.386;8.688;2024-03-02T02:48:21;8.40;;;5.47;;
24216;SDS011;12356;49.386;8.688;2024-03-02T02:50:52;10.45;;;5.57;;
24216;SDS011;12356;49.386;8.688;2024-03-02T02:53:23;10.35;;;6.10;;
24216;SDS011;12356;49.386;8.688;2024-03-02T02:55:53;10.93;;;6.50;;
24216;SDS011;12356;49.386;8.688;2024-03-02T02:58:24;11.07;;;6.47;;
24216;SDS011;12356;49.386;8.688;2024-03-02T03:00:55;11.40;;;6.88;;
24216;SDS011;12356;49.386;8.688;2024-03-02T03:03:26;10.95;;;6.32;;
24216;SDS011;12356;49.386;8.688;2024-03-02T03:05:57;11.98;;;7.13;;
24216;SDS011;12356;49.386;8.688;2024-03-02T03:08:27;12.95;;;6.70;;
24216;SDS011;12356;49.386;8.688;2024-03-02T03:10:58;10.70;;;6.95;;
24216;SDS011;12356;49.386;8.688;2024-03-02T03:13:29;11.63;;;6.95;;
24216;SDS011;12356;49.386;8.688;2024-03-02T03:16:00;13.70;;;7.78;;
24216;SDS011;12356;49.386;8.688;2024-03-02T03:18:30;10.70;;;7.20;;
24216;SDS011;12356;49.386;8.688;2024-03-02T03:21:01;12.00;;;7.60;;
24216;SDS011;12356;49.386;8.688;2024-03-02T03:23:32;13.27;;;8.18;;
24216;SDS011;12356;49.386;8.688;2024-03-02T03:26:03;13.20;;;7.65;;
24216;SDS011;12356;49.386;8.688;2024-03-02T03:28:34;13.00;;;7.60;;
24216;SDS011;12356;49.386;8.688;2024-03-02T03:31:05;13.60;;;8.05;;
24216;SDS011;12356;49.386;8.688;2024-03-02T03:33:36;14.30;;;7.43;;
24216;SDS011;12356;49.386;8.688;2024-03-02T03:36:06;12.30;;;7.20;;
24216;SDS011;12356;49.386;8.688;2024-03-02T03:38:37;10.23;;;6.40;;
24216;SDS011;12356;49.386;8.688;2024-03-02T03:41:07;10.13;;;6.35;;
24216;SDS011;12356;49.386;8.688;2024-03-02T03:43:38;12.30;;;7.35;;
24216;SDS011;12356;49.386;8.688;2024-03-02T03:46:09;10.55;;;6.55;;
24216;SDS011;12356;49.386;8.688;2024-03-02T03:48:39;10.40;;;6.55;;
24216;SDS011;12356;49.386;8.688;2024-03-02T03:51:10;11.52;;;6.05;;
24216;SDS011;12356;49.386;8.688;2024-03-02T03:53:41;9.93;;;6.43;;
24216;SDS011;12356;49.386;8.688;2024-03-02T03:56:11;10.75;;;6.57;;
24216;SDS011;12356;49.386;8.688;2024-03-02T03:58:42;13.52;;;7.15;;
24216;SDS011;12356;49.386;8.688;2024-03-02T04:01:12;11.70;;;7.28;;
24216;SDS011;12356;49.386;8.688;2024-03-02T04:03:43;10.43;;;7.07;;
24216;SDS011;12356;49.386;8.688;2024-03-02T04:06:14;11.27;;;7.30;;
24216;SDS011;12356;49.386;8.688;2024-03-02T04:08:46;10.95;;;6.60;;
24216;SDS011;12356;49.386;8.688;2024-03-02T04:11:17;9.88;;;6.13;;
24216;SDS011;12356;49.386;8.688;2024-03-02T04:13:47;9.88;;;6.15;;
24216;SDS011;12356;49.386;8.688;2024-03-02T04:16:18;9.95;;;6.30;;
24216;SDS011;12356;49.386;8.688;2024-03-02T04:18:49;11.50;;;7.53;;
24216;SDS011;12356;49.386;8.688;2024-03-02T04:21:19;14.27;;;7.45;;
24216;SDS011;12356;49.386;8.688;2024-03-02T04:23:50;12.35;;;7.68;;
24216;SDS011;12356;49.386;8.688;2024-03-02T04:26:20;13.68;;;7.95;;
24216;SDS011;12356;49.386;8.688;2024-03-02T04:28:52;12.73;;;8.18;;
24216;SDS011;12356;49.386;8.688;2024-03-02T04:31:23;13.00;;;8.03;;
24216;SDS011;12356;49.386;8.688;2024-03-02T04:33:54;10.93;;;6.95;;
24216;SDS011;12356;49.386;8.688;2024-03-02T04:36:24;11.57;;;7.30;;
24216;SDS011;12356;49.386;8.688;2024-03-02T04:38:55;8.63;;;5.85;;
24216;SDS011;12356;49.386;8.688;2024-03-02T04:41:26;9.50;;;5.70;;
24216;SDS011;12356;49.386;8.688;2024-03-02T04:43:56;9.95;;;6.10;;
24216;SDS011;12356;49.386;8.688;2024-03-02T04:46:27;10.23;;;5.85;;
24216;SDS011;12356;49.386;8.688;2024-03-02T04:48:57;9.90;;;6.22;;
24216;SDS011;12356;49.386;8.688;2024-03-02T04:51:28;10.82;;;5.90;;
24216;SDS011;12356;49.386;8.688;2024-03-02T04:53:59;10.10;;;6.32;;
24216;SDS011;12356;49.386;8.688;2024-03-02T04:56:29;9.25;;;6.00;;
24216;SDS011;12356;49.386;8.688;2024-03-02T04:59:02;10.40;;;6.40;;
24216;SDS011;12356;49.386;8.688;2024-03-02T05:01:33;10.88;;;5.95;;
24216;SDS011;12356;49.386;8.688;2024-03-02T05:04:04;10.23;;;6.10;;
24216;SDS011;12356;49.386;8.688;2024-03-02T05:06:34;11.20;;;6.85;;
24216;SDS011;12356;49.386;8.688;2024-03-02T05:09:05;11.88;;;7.25;;
24216;SDS011;12356;49.386;8.688;2024-03-02T05:11:36;11.50;;;7.70;;
24216;SDS011;12356;49.386;8.688;2024-03-02T05:14:06;12.43;;;7.93;;
24216;SDS011;12356;49.386;8.688;2024-03-02T05:16:37;16.17;;;10.48;;
24216;SDS011;12356;49.386;8.688;2024-03-02T05:19:11;22.10;;;14.10;;
24216;SDS011;12356;49.386;8.688;2024-03-02T05:21:42;22.75;;;13.77;;
24216;SDS011;12356;49.386;8.688;2024-03-02T05:24:13;23.80;;;13.90;;
24216;SDS011;12356;49.386;8.688;2024-03-02T05:26:43;16.95;;;11.57;;
24216;SDS011;12356;49.386;8.688;2024-03-02T05:29:14;17.98;;;11.30;;
24216;SDS011;12356;49.386;8.688;2024-03-02T05:31:45;17.63;;;11.05;;
24216;SDS011;12356;49.386;8.688;2024-03-02T05:34:15;20.17;;;10.80;;
24216;SDS011;12356;49.386;8.688;2024-03-02T05:36:46;17.13;;;10.52;;
24216;SDS011;12356;49.386;8.688;2024-03-02T05:39:17;18.27;;;10.23;;
24216;SDS011;12356;49.386;8.688;2024-03-02T05:41:48;16.25;;;10.15;;
24216;SDS011;12356;49.386;8.688;2024-03-02T05:44:18;15.45;;;10.05;;
24216;SDS011;12356;49.386;8.688;2024-03-02T05:46:49;16.13;;;10.32;;
24216;SDS011;12356;49.386;8.688;2024-03-02T05:49:20;16.85;;;10.45;;
24216;SDS011;12356;49.386;8.688;2024-03-02T05:51:50;16.98;;;10.13;;
24216;SDS011;12356;49.386;8.688;2024-03-02T05:54:21;17.40;;;10.80;;
24216;SDS011;12356;49.386;8.688;2024-03-02T05:56:52;15.98;;;9.93;;
24216;SDS011;12356;49.386;8.688;2024-03-02T05:59:22;15.35;;;9.50;;
24216;SDS011;12356;49.386;8.688;2024-03-02T06:01:53;15.93;;;10.02;;
24216;SDS011;12356;49.386;8.688;2024-03-02T06:04:24;16.17;;;10.38;;
24216;SDS011;12356;49.386;8.688;2024-03-02T06:06:55;16.25;;;10.25;;
24216;SDS011;12356;49.386;8.688;2024-03-02T06:09:26;17.50;;;10.15;;
24216;SDS011;12356;49.386;8.688;2024-03-02T06:11:56;15.55;;;10.07;;
24216;SDS011;12356;49.386;8.688;2024-03-02T06:14:27;17.73;;;11.00;;
24216;SDS011;12356;49.386;8.688;2024-03-02T06:16:57;19.00;;;10.90;;
24216;SDS011;12356;49.386;8.688;2024-03-02T06:19:29;15.60;;;10.27;;
24216;SDS011;12356;49.386;8.688;2024-03-02T06:22:00;18.80;;;11.45;;
24216;SDS011;12356;49.386;8.688;2024-03-02T06:24:30;19.67;;;11.60;;
24216;SDS011;12356;49.386;8.688;2024-03-02T06:27:01;18.95;;;11.27;;
24216;SDS011;12356;49.386;8.688;2024-03-02T06:29:32;20.20;;;11.30;;
24216;SDS011;12356;49.386;8.688;2024-03-02T06:32:03;18.05;;;11.05;;
24216;SDS011;12356;49.386;8.688;2024-03-02T06:34:34;18.77;;;11.15;;
24216;SDS011;12356;49.386;8.688;2024-03-02T06:37:05;18.45;;;11.35;;
24216;SDS011;12356;49.386;8.688;2024-03-02T06:39:35;17.73;;;10.93;;
24216;SDS011;12356;49.386;8.688;2024-03-02T06:42:06;20.67;;;11.23;;
24216;SDS011;12356;49.386;8.688;2024-03-02T06:44:36;17.90;;;11.40;;
24216;SDS011;12356;49.386;8.688;2024-03-02T06:47:07;17.25;;;10.80;;
24216;SDS011;12356;49.386;8.688;2024-03-02T06:49:38;16.85;;;10.10;;
24216;SDS011;12356;49.386;8.688;2024-03-02T06:52:08;17.83;;;10.43;;
24216;SDS011;12356;49.386;8.688;2024-03-02T06:54:39;16.80;;;10.55;;
24216;SDS011;12356;49.386;8.688;2024-03-02T06:57:10;19.20;;;10.50;;
24216;SDS011;12356;49.386;8.688;2024-03-02T06:59:41;16.52;;;10.45;;
24216;SDS011;12356;49.386;8.688;2024-03-02T07:02:12;22.15;;;10.82;;
24216;SDS011;12356;49.386;8.688;2024-03-02T07:04:42;18.02;;;10.63;;
24216;SDS011;12356;49.386;8.688;2024-03-02T07:07:13;16.98;;;9.88;;
24216;SDS011;12356;49.386;8.688;2024-03-02T07:09:43;17.80;;;10.80;;
24216;SDS011;12356;49.386;8.688;2024-03-02T07:12:14;18.48;;;10.15;;
24216;SDS011;12356;49.386;8.688;2024-03-02T07:14:44;18.08;;;10.32;;
24216;SDS011;12356;49.386;8.688;2024-03-02T07:17:33;15.68;;;9.75;;
24216;SDS011;12356;49.386;8.688;2024-03-02T07:20:04;22.23;;;13.90;;
24216;SDS011;12356;49.386;8.688;2024-03-02T07:22:36;17.73;;;10.32;;
24216;SDS011;12356;49.386;8.688;2024-03-02T07:25:07;20.27;;;11.48;;
24216;SDS011;12356;49.386;8.688;2024-03-02T07:27:38;21.65;;;10.95;;
24216;SDS011;12356;49.386;8.688;2024-03-02T07:30:09;17.65;;;10.30;;
24216;SDS011;12356;49.386;8.688;2024-03-02T07:32:43;20.15;;;10.75;;
24216;SDS011;12356;49.386;8.688;2024-03-02T07:35:15;16.15;;;9.68;;
24216;SDS011;12356;49.386;8.688;2024-03-02T07:37:46;16.58;;;9.65;;
24216;SDS011;12356;49.386;8.688;2024-03-02T07:40:16;17.52;;;10.45;;
24216;SDS011;12356;49.386;8.688;2024-03-02T07:42:47;21.88;;;11.25;;
24216;SDS011;12356;49.386;8.688;2024-03-02T07:45:18;19.25;;;10.63;;
24216;SDS011;12356;49.386;8.688;2024-03-02T07:47:48;18.10;;;10.30;;
24216;SDS011;12356;49.386;8.688;2024-03-02T07:50:20;19.50;;;10.73;;
24216;SDS011;12356;49.386;8.688;2024-03-02T07:52:50;14.10;;;9.75;;
24216;SDS011;12356;49.386;8.688;2024-03-02T07:55:21;18.00;;;10.30;;
24216;SDS011;12356;49.386;8.688;2024-03-02T08:00:24;20.40;;;9.73;;
24216;SDS011;12356;49.386;8.688;2024-03-02T08:02:55;20.80;;;10.50;;
24216;SDS011;12356;49.386;8.688;2024-03-02T08:05:26;19.08;;;9.32;;
24216;SDS011;12356;49.386;8.688;2024-03-02T08:07:57;16.80;;;9.68;;
24216;SDS011;12356;49.386;8.688;2024-03-02T08:10:28;14.07;;;9.13;;
24216;SDS011;12356;49.386;8.688;2024-03-02T08:12:58;17.30;;;9.23;;
24216;SDS011;12356;49.386;8.688;2024-03-02T08:15:29;19.17;;;9.52;;
24216;SDS011;12356;49.386;8.688;2024-03-02T08:17:59;19.00;;;9.20;;
24216;SDS011;12356;49.386;8.688;2024-03-02T08:20:30;15.45;;;8.68;;
24216;SDS011;12356;49.386;8.688;2024-03-02T08:23:01;13.98;;;8.60;;
24216;SDS011;12356;49.386;8.688;2024-03-02T08:25:32;15.48;;;9.20;;
24216;SDS011;12356;49.386;8.688;2024-03-02T08:28:03;16.88;;;8.88;;
24216;SDS011;12356;49.386;8.688;2024-03-02T08:30:35;14.40;;;9.05;;
24216;SDS011;12356;49.386;8.688;2024-03-02T08:33:05;17.45;;;8.98;;
24216;SDS011;12356;49.386;8.688;2024-03-02T08:35:36;14.48;;;8.27;;
24216;SDS011;12356;49.386;8.688;2024-03-02T08:38:06;13.63;;;8.45;;
24216;SDS011;12356;49.386;8.688;2024-03-02T08:40:37;17.58;;;9.10;;
24216;SDS011;12356;49.386;8.688;2024-03-02T08:43:07;13.85;;;8.40;;
24216;SDS011;12356;49.386;8.688;2024-03-02T08:45:38;15.93;;;8.73;;
24216;SDS011;12356;49.386;8.688;2024-03-02T08:48:09;13.60;;;8.00;;
24216;SDS011;12356;49.386;8.688;2024-03-02T08:50:40;13.50;;;7.78;;
24216;SDS011;12356;49.386;8.688;2024-03-02T08:53:10;12.55;;;7.63;;
24216;SDS011;12356;49.386;8.688;2024-03-02T08:55:41;11.68;;;7.75;;
24216;SDS011;12356;49.386;8.688;2024-03-02T08:58:12;13.43;;;7.63;;
24216;SDS011;12356;49.386;8.688;2024-03-02T09:00:43;13.65;;;7.53;;
24216;SDS011;12356;49.386;8.688;2024-03-02T09:03:14;12.30;;;7.72;;
24216;SDS011;12356;49.386;8.688;2024-03-02T09:05:45;12.95;;;7.45;;
24216;SDS011;12356;49.386;8.688;2024-03-02T09:08:15;13.65;;;7.68;;
24216;SDS011;12356;49.386;8.688;2024-03-02T09:10:46;11.18;;;7.00;;
24216;SDS011;12356;49.386;8.688;2024-03-02T09:13:16;12.00;;;7.53;;
24216;SDS011;12356;49.386;8.688;2024-03-02T09:15:47;11.30;;;7.63;;
24216;SDS011;12356;49.386;8.688;2024-03-02T09:18:18;11.98;;;7.55;;
24216;SDS011;12356;49.386;8.688;2024-03-02T09:20:48;11.60;;;7.20;;
24216;SDS011;12356;49.386;8.688;2024-03-02T09:23:19;11.60;;;7.20;;
24216;SDS011;12356;49.386;8.688;2024-03-02T09:25:50;11.73;;;7.45;;
24216;SDS011;12356;49.386;8.688;2024-03-02T09:28:21;13.23;;;7.05;;
24216;SDS011;12356;49.386;8.688;2024-03-02T09:30:52;9.40;;;6.30;;
24216;SDS011;12356;49.386;8.688;2024-03-02T09:33:22;11.15;;;6.78;;
24216;SDS011;12356;49.386;8.688;2024-03-02T09:35:53;12.40;;;6.60;;
24216;SDS011;12356;49.386;8.688;2024-03-02T09:38:23;12.70;;;6.70;;
24216;SDS011;12356;49.386;8.688;2024-03-02T09:40:54;11.30;;;6.47;;
24216;SDS011;12356;49.386;8.688;2024-03-02T09:43:25;11.10;;;6.25;;
24216;SDS011;12356;49.386;8.688;2024-03-02T09:45:55;10.45;;;6.45;;
24216;SDS011;12356;49.386;8.688;2024-03-02T09:48:26;12.75;;;6.45;;
24216;SDS011;12356;49.386;8.688;2024-03-02T09:50:56;11.57;;;6.50;;
24216;SDS011;12356;49.386;8.688;2024-03-02T09:53:29;11.73;;;6.55;;
24216;SDS011;12356;49.386;8.688;2024-03-02T09:56:02;8.93;;;6.00;;
24216;SDS011;12356;49.386;8.688;2024-03-02T09:58:33;11.02;;;6.13;;
24216;SDS011;12356;49.386;8.688;2024-03-02T10:01:05;10.32;;;6.20;;
24216;SDS011;12356;49.386;8.688;2024-03-02T10:03:36;9.48;;;5.32;;
24216;SDS011;12356;49.386;8.688;2024-03-02T10:06:23;8.13;;;5.28;;
24216;SDS011;12356;49.386;8.688;2024-03-02T10:08:55;9.40;;;5.93;;
24216;SDS011;12356;49.386;8.688;2024-03-02T10:11:31;8.45;;;5.47;;
24216;SDS011;12356;49.386;8.688;2024-03-02T10:16:41;9.07;;;5.72;;
24216;SDS011;12356;49.386;8.688;2024-03-02T10:21:48;8.52;;;5.38;;
24216;SDS011;12356;49.386;8.688;2024-03-02T10:24:22;9.77;;;5.37;;
24216;SDS011;12356;49.386;8.688;2024-03-02T10:26:53;8.35;;;5.05;;
24216;SDS011;12356;49.386;8.688;2024-03-02T10:29:24;9.13;;;5.20;;
24216;SDS011;12356;49.386;8.688;2024-03-02T10:31:58;9.10;;;5.40;;
24216;SDS011;12356;49.386;8.688;2024-03-02T10:34:32;7.65;;;4.88;;
24216;SDS011;12356;49.386;8.688;2024-03-02T10:37:03;7.78;;;4.85;;
24216;SDS011;12356;49.386;8.688;2024-03-02T10:39:35;6.75;;;4.53;;
24216;SDS011;12356;49.386;8.688;2024-03-02T10:42:06;4.32;;;2.97;;
24216;SDS011;12356;49.386;8.688;2024-03-02T10:44:37;6.85;;;3.30;;
24216;SDS011;12356;49.386;8.688;2024-03-02T10:47:09;5.10;;;3.00;;
24216;SDS011;12356;49.386;8.688;2024-03-02T10:49:42;4.15;;;2.78;;
24216;SDS011;12356;49.386;8.688;2024-03-02T10:52:13;3.87;;;2.73;;
24216;SDS011;12356;49.386;8.688;2024-03-02T10:54:44;4.65;;;2.90;;
24216;SDS011;12356;49.386;8.688;2024-03-02T10:57:15;4.57;;;3.10;;
24216;SDS011;12356;49.386;8.688;2024-03-02T10:59:56;3.85;;;2.95;;
24216;SDS011;12356;49.386;8.688;2024-03-02T11:02:31;4.18;;;2.90;;
24216;SDS011;12356;49.386;8.688;2024-03-02T11:05:05;4.68;;;2.75;;
24216;SDS011;12356;49.386;8.688;2024-03-02T11:07:39;3.00;;;2.30;;
24216;SDS011;12356;49.386;8.688;2024-03-02T11:10:10;4.28;;;2.75;;
24216;SDS011;12356;49.386;8.688;2024-03-02T11:12:44;3.72;;;2.33;;
24216;SDS011;12356;49.386;8.688;2024-03-02T11:15:22;3.97;;;3.00;;
24216;SDS011;12356;49.386;8.688;2024-03-02T11:17:56;4.65;;;3.00;;
24216;SDS011;12356;49.386;8.688;2024-03-02T11:20:27;3.97;;;2.78;;
24216;SDS011;12356;49.386;8.688;2024-03-02T11:23:04;3.97;;;2.63;;
24216;SDS011;12356;49.386;8.688;2024-03-02T11:25:38;6.13;;;2.72;;
24216;SDS011;12356;49.386;8.688;2024-03-02T11:28:09;3.80;;;2.97;;
24216;SDS011;12356;49.386;8.688;2024-03-02T11:33:12;4.80;;;2.40;;
24216;SDS011;12356;49.386;8.688;2024-03-02T11:35:43;4.10;;;2.80;;
24216;SDS011;12356;49.386;8.688;2024-03-02T11:38:18;3.55;;;2.40;;
24216;SDS011;12356;49.386;8.688;2024-03-02T11:40:49;5.75;;;2.40;;
24216;SDS011;12356;49.386;8.688;2024-03-02T11:43:20;3.45;;;2.38;;
24216;SDS011;12356;49.386;8.688;2024-03-02T11:45:56;2.22;;;1.70;;
24216;SDS011;12356;49.386;8.688;2024-03-02T11:48:30;2.80;;;2.10;;
24216;SDS011;12356;49.386;8.688;2024-03-02T11:51:01;4.60;;;3.03;;
24216;SDS011;12356;49.386;8.688;2024-03-02T11:53:32;6.60;;;3.00;;
24216;SDS011;12356;49.386;8.688;2024-03-02T11:56:05;3.60;;;2.80;;
24216;SDS011;12356;49.386;8.688;2024-03-02T11:58:39;3.45;;;2.35;;
24216;SDS011;12356;49.386;8.688;2024-03-02T12:01:11;3.55;;;2.40;;
24216;SDS011;12356;49.386;8.688;2024-03-02T12:03:43;3.47;;;2.30;;
24216;SDS011;12356;49.386;8.688;2024-03-02T12:06:14;6.10;;;3.10;;
24216;SDS011;12356;49.386;8.688;2024-03-02T12:08:45;3.72;;;2.80;;
24216;SDS011;12356;49.386;8.688;2024-03-02T12:11:16;4.40;;;2.45;;
24216;SDS011;12356;49.386;8.688;2024-03-02T12:13:53;4.05;;;2.40;;
24216;SDS011;12356;49.386;8.688;2024-03-02T12:16:27;3.20;;;2.00;;
24216;SDS011;12356;49.386;8.688;2024-03-02T12:18:59;5.93;;;2.20;;
24216;SDS011;12356;49.386;8.688;2024-03-02T12:21:29;2.92;;;2.30;;
24216;SDS011;12356;49.386;8.688;2024-03-02T12:24:01;3.97;;;2.90;;
24216;SDS011;12356;49.386;8.688;2024-03-02T12:26:32;3.08;;;2.35;;
24216;SDS011;12356;49.386;8.688;2024-03-02T12:29:03;3.95;;;2.80;;
24216;SDS011;12356;49.386;8.688;2024-03-02T12:31:34;4.13;;;3.00;;
24216;SDS011;12356;49.386;8.688;2024-03-02T12:34:05;3.47;;;2.90;;
24216;SDS011;12356;49.386;8.688;2024-03-02T12:36:39;4.93;;;3.00;;
24216;SDS011;12356;49.386;8.688;2024-03-02T12:39:11;3.28;;;2.50;;
24216;SDS011;12356;49.386;8.688;2024-03-02T12:41:42;4.50;;;2.58;;
24216;SDS011;12356;49.386;8.688;2024-03-02T12:44:12;4.00;;;2.72;;
24216;SDS011;12356;49.386;8.688;2024-03-02T12:46:43;3.92;;;2.63;;
24216;SDS011;12356;49.386;8.688;2024-03-02T12:49:15;6.10;;;3.42;;
24216;SDS011;12356;49.386;8.688;2024-03-02T12:51:46;4.35;;;3.30;;
24216;SDS011;12356;49.386;8.688;2024-03-02T12:54:22;4.85;;;3.30;;
24216;SDS011;12356;49.386;8.688;2024-03-02T12:56:54;5.20;;;3.60;;
24216;SDS011;12356;49.386;8.688;2024-03-02T12:59:27;3.90;;;3.15;;
24216;SDS011;12356;49.386;8.688;2024-03-02T13:01:58;3.30;;;2.28;;
24216;SDS011;12356;49.386;8.688;2024-03-02T13:04:29;3.72;;;2.28;;
24216;SDS011;12356;49.386;8.688;2024-03-02T13:07:01;4.65;;;2.22;;
24216;SDS011;12356;49.386;8.688;2024-03-02T13:09:32;2.95;;;2.00;;
24216;SDS011;12356;49.386;8.688;2024-03-02T13:12:03;3.30;;;2.60;;
24216;SDS011;12356;49.386;8.688;2024-03-02T13:14:35;3.70;;;2.42;;
24216;SDS011;12356;49.386;8.688;2024-03-02T13:17:07;3.88;;;2.75;;
24216;SDS011;12356;49.386;8.688;2024-03-02T13:19:38;3.75;;;2.58;;
24216;SDS011;12356;49.386;8.688;2024-03-02T13:22:20;4.32;;;2.67;;
24216;SDS011;12356;49.386;8.688;2024-03-02T13:24:52;5.40;;;3.22;;
24216;SDS011;12356;49.386;8.688;2024-03-02T13:27:24;4.35;;;3.00;;
24216;SDS011;12356;49.386;8.688;2024-03-02T13:29:54;5.18;;;2.97;;
24216;SDS011;12356;49.386;8.688;2024-03-02T13:32:25;5.00;;;2.97;;
24216;SDS011;12356;49.386;8.688;2024-03-02T13:34:56;5.32;;;3.55;;
24216;SDS011;12356;49.386;8.688;2024-03-02T13:37:26;4.43;;;2.55;;
24216;SDS011;12356;49.386;8.688;2024-03-02T13:39:57;4.75;;;2.75;;
24216;SDS011;12356;49.386;8.688;2024-03-02T13:42:27;3.35;;;2.45;;
24216;SDS011;12356;49.386;8.688;2024-03-02T13:44:58;4.22;;;2.70;;
24216;SDS011;12356;49.386;8.688;2024-03-02T13:47:29;3.38;;;2.33;;
24216;SDS011;12356;49.386;8.688;2024-03-02T13:49:59;3.05;;;2.33;;
24216;SDS011;12356;49.386;8.688;2024-03-02T13:52:30;3.22;;;2.13;;
24216;SDS011;12356;49.386;8.688;2024-03-02T13:55:00;3.30;;;2.30;;
24216;SDS011;12356;49.386;8.688;2024-03-02T13:57:32;2.97;;;2.30;;
24216;SDS011;12356;49.386;8.688;2024-03-02T14:00:02;3.88;;;2.80;;
24216;SDS011;12356;49.386;8.688;2024-03-02T14:02:40;3.88;;;2.30;;
24216;SDS011;12356;49.386;8.688;2024-03-02T14:05:10;3.83;;;2.53;;
24216;SDS011;12356;49.386;8.688;2024-03-02T14:07:41;3.40;;;2.67;;
24216;SDS011;12356;49.386;8.688;2024-03-02T14:10:12;5.00;;;2.30;;
24216;SDS011;12356;49.386;8.688;2024-03-02T14:12:44;3.30;;;2.45;;
24216;SDS011;12356;49.386;8.688;2024-03-02T14:15:14;3.20;;;2.67;;
24216;SDS011;12356;49.386;8.688;2024-03-02T14:17:45;3.17;;;2.17;;
24216;SDS011;12356;49.386;8.688;2024-03-02T14:20:15;4.03;;;2.85;;
24216;SDS011;12356;49.386;8.688;2024-03-02T14:22:51;5.63;;;2.70;;
24216;SDS011;12356;49.386;8.688;2024-03-02T14:25:22;3.83;;;2.50;;
24216;SDS011;12356;49.386;8.688;2024-03-02T14:27:52;3.22;;;2.00;;
24216;SDS011;12356;49.386;8.688;2024-03-02T14:30:23;3.70;;;2.35;;
24216;SDS011;12356;49.386;8.688;2024-03-02T14:32:54;2.80;;;1.98;;
24216;SDS011;12356;49.386;8.688;2024-03-02T14:35:24;3.05;;;2.00;;
24216;SDS011;12356;49.386;8.688;2024-03-02T14:37:55;3.67;;;2.13;;
24216;SDS011;12356;49.386;8.688;2024-03-02T14:40:27;2.10;;;1.73;;
24216;SDS011;12356;49.386;8.688;2024-03-02T14:42:59;3.35;;;1.70;;
24216;SDS011;12356;49.386;8.688;2024-03-02T14:45:30;2.58;;;1.80;;
24216;SDS011;12356;49.386;8.688;2024-03-02T14:48:00;2.00;;;1.80;;
24216;SDS011;12356;49.386;8.688;2024-03-02T14:50:32;2.22;;;1.70;;
24216;SDS011;12356;49.386;8.688;2024-03-02T14:53:03;3.30;;;2.00;;
24216;SDS011;12356;49.386;8.688;2024-03-02T14:55:37;3.42;;;2.10;;
24216;SDS011;12356;49.386;8.688;2024-03-02T14:58:07;2.33;;;1.95;;
24216;SDS011;12356;49.386;8.688;2024-03-02T15:00:38;4.35;;;2.40;;
24216;SDS011;12356;49.386;8.688;2024-03-02T15:03:08;3.10;;;1.90;;
24216;SDS011;12356;49.386;8.688;2024-03-02T15:05:39;2.60;;;1.80;;
24216;SDS011;12356;49.386;8.688;2024-03-02T15:08:10;2.47;;;1.63;;
24216;SDS011;12356;49.386;8.688;2024-03-02T15:10:40;2.70;;;1.80;;
24216;SDS011;12356;49.386;8.688;2024-03-02T15:13:11;2.85;;;1.80;;